sensor_id;sensor_type;location;lat;lon;timestamp;pressure;altitude;pressure_sealevel;temperature;humidity
51067;BME280;37112;45.892;-123.962;2023-02-22T00:01:31;100263.89;;;5.48;78.89
51067;BME280;37112;45.892;-123.962;2023-02-22T00:03:57;100257.55;;;5.48;78.81
51067;BME280;37112;45.892;-123.962;2023-02-22T00:06:18;100259.69;;;5.50;78.47
51067;BME280;37112;45.892;-123.962;2023-02-22T00:08:36;100258.23;;;5.54;78.83
51067;BME280;37112;45.892;-123.962;2023-02-22T00:10:50;100244.50;;;5.65;79.22
51067;BME280;37112;45.892;-123.962;2023-02-22T00:13:07;100246.18;;;5.75;79.89
51067;BME280;37112;45.892;-123.962;2023-02-22T00:15:21;100244.19;;;5.82;79.65
51067;BME280;37112;45.892;-123.962;2023-02-22T00:17:37;100238.44;;;5.85;78.39
51067;BME280;37112;45.892;-123.962;2023-02-22T00:19:51;100237.77;;;5.87;78.44
51067;BME280;37112;45.892;-123.962;2023-02-22T00:22:05;100232.98;;;5.92;78.22
51067;BME280;37112;45.892;-123.962;2023-02-22T00:24:18;100229.73;;;5.96;78.63
51067;BME280;37112;45.892;-123.962;2023-02-22T00:26:34;100223.48;;;6.04;79.26
51067;BME280;37112;45.892;-123.962;2023-02-22T00:28:51;100219.55;;;6.10;79.46
51067;BME280;37112;45.892;-123.962;2023-02-22T00:31:05;100213.64;;;6.16;79.20
51067;BME280;37112;45.892;-123.962;2023-02-22T00:33:19;100209.80;;;6.18;78.51
51067;BME280;37112;45.892;-123.962;2023-02-22T00:35:32;100208.62;;;6.20;78.55
51067;BME280;37112;45.892;-123.962;2023-02-22T00:37:48;100216.36;;;6.20;78.18
51067;BME280;37112;45.892;-123.962;2023-02-22T00:40:02;100234.52;;;6.08;77.27
51067;BME280;37112;45.892;-123.962;2023-02-22T00:42:18;100249.63;;;5.73;76.54
51067;BME280;37112;45.892;-123.962;2023-02-22T00:44:32;100241.65;;;5.42;77.48
51067;BME280;37112;45.892;-123.962;2023-02-22T00:46:45;100243.96;;;5.25;77.69
51067;BME280;37112;45.892;-123.962;2023-02-22T00:48:59;100243.33;;;5.14;78.32
51067;BME280;37112;45.892;-123.962;2023-02-22T00:51:13;100260.46;;;5.09;81.06
51067;BME280;37112;45.892;-123.962;2023-02-22T00:53:27;100262.40;;;5.03;82.30
51067;BME280;37112;45.892;-123.962;2023-02-22T00:55:41;100253.91;;;4.90;82.29
51067;BME280;37112;45.892;-123.962;2023-02-22T00:57:54;100244.59;;;4.80;82.46
51067;BME280;37112;45.892;-123.962;2023-02-22T01:00:14;100247.52;;;4.73;82.76
51067;BME280;37112;45.892;-123.962;2023-02-22T01:02:28;100248.30;;;4.68;83.70
51067;BME280;37112;45.892;-123.962;2023-02-22T01:04:41;100256.11;;;4.67;84.29
51067;BME280;37112;45.892;-123.962;2023-02-22T01:06:55;100257.85;;;4.71;85.54
51067;BME280;37112;45.892;-123.962;2023-02-22T01:09:12;100255.52;;;4.69;83.82
51067;BME280;37112;45.892;-123.962;2023-02-22T01:11:26;100249.98;;;4.64;82.50
51067;BME280;37112;45.892;-123.962;2023-02-22T01:13:42;100249.60;;;4.61;82.87
51067;BME280;37112;45.892;-123.962;2023-02-22T01:15:56;100250.92;;;4.59;82.48
51067;BME280;37112;45.892;-123.962;2023-02-22T01:18:12;100252.80;;;4.56;82.73
51067;BME280;37112;45.892;-123.962;2023-02-22T01:20:30;100252.97;;;4.60;83.63
51067;BME280;37112;45.892;-123.962;2023-02-22T01:22:46;100246.02;;;4.65;84.76
51067;BME280;37112;45.892;-123.962;2023-02-22T01:24:59;100245.95;;;4.67;83.35
51067;BME280;37112;45.892;-123.962;2023-02-22T01:27:15;100247.77;;;4.62;82.84
51067;BME280;37112;45.892;-123.962;2023-02-22T01:29:28;100237.85;;;4.63;83.75
51067;BME280;37112;45.892;-123.962;2023-02-22T01:31:42;100237.00;;;4.70;84.85
51067;BME280;37112;45.892;-123.962;2023-02-22T01:33:56;100236.00;;;4.76;85.00
51067;BME280;37112;45.892;-123.962;2023-02-22T01:36:11;100231.30;;;4.71;82.75
51067;BME280;37112;45.892;-123.962;2023-02-22T01:38:25;100226.44;;;4.66;82.71
51067;BME280;37112;45.892;-123.962;2023-02-22T01:40:41;100223.56;;;4.68;83.34
51067;BME280;37112;45.892;-123.962;2023-02-22T01:42:55;100231.06;;;4.69;82.75
51067;BME280;37112;45.892;-123.962;2023-02-22T01:48:16;100233.75;;;4.75;83.19
51067;BME280;37112;45.892;-123.962;2023-02-22T01:50:34;100225.11;;;4.75;83.42
51067;BME280;37112;45.892;-123.962;2023-02-22T01:52:48;100217.05;;;4.74;82.49
51067;BME280;37112;45.892;-123.962;2023-02-22T01:55:02;100214.38;;;4.75;82.66
51067;BME280;37112;45.892;-123.962;2023-02-22T01:57:19;100213.89;;;4.78;83.40
51067;BME280;37112;45.892;-123.962;2023-02-22T01:59:37;100211.64;;;4.81;82.99
51067;BME280;37112;45.892;-123.962;2023-02-22T02:01:53;100207.86;;;4.79;82.89
51067;BME280;37112;45.892;-123.962;2023-02-22T02:04:08;100206.08;;;4.80;82.90
51067;BME280;37112;45.892;-123.962;2023-02-22T02:06:24;100202.90;;;4.83;83.16
51067;BME280;37112;45.892;-123.962;2023-02-22T02:08:47;100203.66;;;4.89;83.69
51067;BME280;37112;45.892;-123.962;2023-02-22T02:11:03;100206.60;;;4.96;82.46
51067;BME280;37112;45.892;-123.962;2023-02-22T02:13:17;100203.26;;;4.93;80.18
51067;BME280;37112;45.892;-123.962;2023-02-22T02:15:32;100201.98;;;4.94;80.28
51067;BME280;37112;45.892;-123.962;2023-02-22T02:17:46;100204.00;;;4.99;81.24
51067;BME280;37112;45.892;-123.962;2023-02-22T02:20:07;100204.27;;;5.04;82.34
51067;BME280;37112;45.892;-123.962;2023-02-22T02:22:32;100208.27;;;4.98;81.39
51067;BME280;37112;45.892;-123.962;2023-02-22T02:25:10;100197.59;;;4.87;81.29
51067;BME280;37112;45.892;-123.962;2023-02-22T02:27:41;100194.65;;;4.83;81.86
51067;BME280;37112;45.892;-123.962;2023-02-22T02:30:39;100188.02;;;4.79;82.00
51067;BME280;37112;45.892;-123.962;2023-02-22T02:32:57;100186.42;;;4.75;81.96
51067;BME280;37112;45.892;-123.962;2023-02-22T02:35:17;100183.42;;;4.75;81.38
51067;BME280;37112;45.892;-123.962;2023-02-22T02:37:39;100180.70;;;4.73;81.48
51067;BME280;37112;45.892;-123.962;2023-02-22T02:39:59;100172.57;;;4.74;81.29
51067;BME280;37112;45.892;-123.962;2023-02-22T02:42:26;100160.40;;;4.75;81.45
51067;BME280;37112;45.892;-123.962;2023-02-22T02:44:42;100159.24;;;4.77;81.54
51067;BME280;37112;45.892;-123.962;2023-02-22T02:47:04;100159.02;;;4.78;81.77
51067;BME280;37112;45.892;-123.962;2023-02-22T02:49:21;100152.33;;;4.78;81.92
51067;BME280;37112;45.892;-123.962;2023-02-22T02:51:39;100152.02;;;4.78;81.58
51067;BME280;37112;45.892;-123.962;2023-02-22T02:53:54;100146.30;;;4.76;81.64
51067;BME280;37112;45.892;-123.962;2023-02-22T02:56:08;100139.27;;;4.75;81.90
51067;BME280;37112;45.892;-123.962;2023-02-22T02:58:23;100135.54;;;4.76;81.98
51067;BME280;37112;45.892;-123.962;2023-02-22T03:00:39;100130.87;;;4.78;82.00
51067;BME280;37112;45.892;-123.962;2023-02-22T03:03:07;100120.39;;;4.80;82.37
51067;BME280;37112;45.892;-123.962;2023-02-22T03:05:37;100119.80;;;4.85;82.88
51067;BME280;37112;45.892;-123.962;2023-02-22T03:07:58;100122.46;;;4.94;82.07
51067;BME280;37112;45.892;-123.962;2023-02-22T03:10:32;100116.86;;;5.00;81.10
51067;BME280;37112;45.892;-123.962;2023-02-22T03:12:59;100110.25;;;5.08;79.83
51067;BME280;37112;45.892;-123.962;2023-02-22T03:15:31;100110.38;;;5.12;80.13
51067;BME280;37112;45.892;-123.962;2023-02-22T03:17:55;100107.28;;;5.14;79.38
51067;BME280;37112;45.892;-123.962;2023-02-22T03:20:25;100104.73;;;5.19;79.91
51067;BME280;37112;45.892;-123.962;2023-02-22T03:22:47;100102.33;;;5.21;79.76
51067;BME280;37112;45.892;-123.962;2023-02-22T03:25:07;100100.80;;;5.23;79.51
51067;BME280;37112;45.892;-123.962;2023-02-22T03:27:30;100093.16;;;5.24;78.92
51067;BME280;37112;45.892;-123.962;2023-02-22T03:29:44;100090.79;;;5.29;80.10
51067;BME280;37112;45.892;-123.962;2023-02-22T03:31:58;100095.11;;;5.37;81.56
51067;BME280;37112;45.892;-123.962;2023-02-22T03:34:18;100095.16;;;5.33;80.68
51067;BME280;37112;45.892;-123.962;2023-02-22T03:36:37;100096.84;;;5.15;79.19
51067;BME280;37112;45.892;-123.962;2023-02-22T03:38:53;100090.05;;;4.98;79.25
51067;BME280;37112;45.892;-123.962;2023-02-22T03:41:10;100085.77;;;4.83;79.57
51067;BME280;37112;45.892;-123.962;2023-02-22T03:43:29;100087.42;;;4.71;79.57
51067;BME280;37112;45.892;-123.962;2023-02-22T03:45:44;100076.48;;;4.65;79.81
51067;BME280;37112;45.892;-123.962;2023-02-22T03:48:05;100079.86;;;4.65;79.68
51067;BME280;37112;45.892;-123.962;2023-02-22T03:50:24;100085.65;;;4.68;80.56
51067;BME280;37112;45.892;-123.962;2023-02-22T03:52:40;100099.89;;;4.75;81.47
51067;BME280;37112;45.892;-123.962;2023-02-22T03:54:59;100089.20;;;4.78;82.19
51067;BME280;37112;45.892;-123.962;2023-02-22T03:57:18;100092.64;;;4.76;82.71
51067;BME280;37112;45.892;-123.962;2023-02-22T03:59:34;100089.27;;;4.80;84.08
51067;BME280;37112;45.892;-123.962;2023-02-22T04:01:47;100091.77;;;4.72;80.26
51067;BME280;37112;45.892;-123.962;2023-02-22T04:04:01;100084.81;;;4.58;79.17
51067;BME280;37112;45.892;-123.962;2023-02-22T04:06:16;100078.89;;;4.53;80.15
51067;BME280;37112;45.892;-123.962;2023-02-22T04:08:31;100079.46;;;4.56;79.73
51067;BME280;37112;45.892;-123.962;2023-02-22T04:10:44;100074.42;;;4.58;79.62
51067;BME280;37112;45.892;-123.962;2023-02-22T04:13:02;100071.33;;;4.60;78.72
51067;BME280;37112;45.892;-123.962;2023-02-22T04:15:20;100064.83;;;4.66;79.11
51067;BME280;37112;45.892;-123.962;2023-02-22T04:17:37;100064.84;;;4.73;79.42
51067;BME280;37112;45.892;-123.962;2023-02-22T04:19:54;100058.45;;;4.81;79.79
51067;BME280;37112;45.892;-123.962;2023-02-22T04:22:13;100067.33;;;4.89;80.58
51067;BME280;37112;45.892;-123.962;2023-02-22T04:24:27;100083.20;;;4.81;77.95
51067;BME280;37112;45.892;-123.962;2023-02-22T04:26:40;100073.55;;;4.58;78.19
51067;BME280;37112;45.892;-123.962;2023-02-22T04:28:54;100061.77;;;4.38;78.01
51067;BME280;37112;45.892;-123.962;2023-02-22T04:31:13;100054.46;;;4.23;78.23
51067;BME280;37112;45.892;-123.962;2023-02-22T04:33:28;100048.91;;;4.11;78.08
51067;BME280;37112;45.892;-123.962;2023-02-22T04:35:41;100044.08;;;4.07;78.39
51067;BME280;37112;45.892;-123.962;2023-02-22T04:37:54;100036.08;;;4.05;78.80
51067;BME280;37112;45.892;-123.962;2023-02-22T04:40:09;100041.39;;;4.11;80.06
51067;BME280;37112;45.892;-123.962;2023-02-22T04:42:22;100040.84;;;4.25;82.27
51067;BME280;37112;45.892;-123.962;2023-02-22T04:44:36;100036.27;;;4.35;82.17
51067;BME280;37112;45.892;-123.962;2023-02-22T04:46:50;100033.06;;;4.36;81.32
51067;BME280;37112;45.892;-123.962;2023-02-22T04:49:04;100023.17;;;4.33;80.73
51067;BME280;37112;45.892;-123.962;2023-02-22T04:51:19;100016.16;;;4.33;80.89
51067;BME280;37112;45.892;-123.962;2023-02-22T04:53:40;100008.49;;;4.35;80.93
51067;BME280;37112;45.892;-123.962;2023-02-22T04:55:55;100015.92;;;4.38;81.07
51067;BME280;37112;45.892;-123.962;2023-02-22T04:58:08;100017.48;;;4.34;80.85
51067;BME280;37112;45.892;-123.962;2023-02-22T05:00:22;100013.63;;;4.28;80.40
51067;BME280;37112;45.892;-123.962;2023-02-22T05:02:41;100005.54;;;4.22;80.26
51067;BME280;37112;45.892;-123.962;2023-02-22T05:04:54;99999.66;;;4.16;80.03
51067;BME280;37112;45.892;-123.962;2023-02-22T05:07:08;99993.77;;;4.11;80.02
51067;BME280;37112;45.892;-123.962;2023-02-22T05:09:22;99998.27;;;4.09;80.29
51067;BME280;37112;45.892;-123.962;2023-02-22T05:11:35;100001.29;;;4.08;80.28
51067;BME280;37112;45.892;-123.962;2023-02-22T05:13:49;99994.64;;;4.05;80.14
51067;BME280;37112;45.892;-123.962;2023-02-22T05:16:03;99987.65;;;4.01;80.15
51067;BME280;37112;45.892;-123.962;2023-02-22T05:18:17;99988.95;;;3.99;81.04
51067;BME280;37112;45.892;-123.962;2023-02-22T05:20:33;99995.35;;;4.08;84.61
51067;BME280;37112;45.892;-123.962;2023-02-22T05:22:47;99992.11;;;4.19;85.54
51067;BME280;37112;45.892;-123.962;2023-02-22T05:25:01;99990.61;;;4.25;84.96
51067;BME280;37112;45.892;-123.962;2023-02-22T05:27:14;99987.89;;;4.19;84.36
51067;BME280;37112;45.892;-123.962;2023-02-22T05:29:29;99980.09;;;4.14;84.55
51067;BME280;37112;45.892;-123.962;2023-02-22T05:31:42;99985.70;;;4.11;84.52
51067;BME280;37112;45.892;-123.962;2023-02-22T05:33:56;99986.27;;;4.07;84.91
51067;BME280;37112;45.892;-123.962;2023-02-22T05:36:14;99982.31;;;4.02;84.84
51067;BME280;37112;45.892;-123.962;2023-02-22T05:38:27;99980.38;;;3.95;85.03
51067;BME280;37112;45.892;-123.962;2023-02-22T05:40:40;99984.29;;;3.91;84.84
51067;BME280;37112;45.892;-123.962;2023-02-22T05:42:54;99980.95;;;3.84;84.68
51067;BME280;37112;45.892;-123.962;2023-02-22T05:45:10;99979.88;;;3.78;84.62
51067;BME280;37112;45.892;-123.962;2023-02-22T05:47:25;99976.19;;;3.75;84.40
51067;BME280;37112;45.892;-123.962;2023-02-22T05:49:38;99972.09;;;3.72;84.52
51067;BME280;37112;45.892;-123.962;2023-02-22T05:51:51;99969.14;;;3.71;84.57
51067;BME280;37112;45.892;-123.962;2023-02-22T05:54:09;99968.36;;;3.73;84.71
51067;BME280;37112;45.892;-123.962;2023-02-22T05:56:27;99959.95;;;3.73;84.60
51067;BME280;37112;45.892;-123.962;2023-02-22T05:58:40;99952.83;;;3.71;84.29
51067;BME280;37112;45.892;-123.962;2023-02-22T06:00:54;99957.36;;;3.68;83.94
51067;BME280;37112;45.892;-123.962;2023-02-22T06:03:10;99951.38;;;3.65;83.64
51067;BME280;37112;45.892;-123.962;2023-02-22T06:05:24;99940.15;;;3.61;83.66
51067;BME280;37112;45.892;-123.962;2023-02-22T06:07:38;99949.29;;;3.61;83.83
51067;BME280;37112;45.892;-123.962;2023-02-22T06:09:51;99953.08;;;3.59;83.71
51067;BME280;37112;45.892;-123.962;2023-02-22T06:12:05;99959.63;;;3.58;83.55
51067;BME280;37112;45.892;-123.962;2023-02-22T06:14:18;99952.09;;;3.58;83.63
51067;BME280;37112;45.892;-123.962;2023-02-22T06:16:32;99945.80;;;3.57;83.82
51067;BME280;37112;45.892;-123.962;2023-02-22T06:18:48;99963.79;;;3.52;83.75
51067;BME280;37112;45.892;-123.962;2023-02-22T06:21:02;99963.39;;;3.46;83.70
51067;BME280;37112;45.892;-123.962;2023-02-22T06:23:15;99952.52;;;3.42;83.84
51067;BME280;37112;45.892;-123.962;2023-02-22T06:25:30;99950.69;;;3.41;84.22
51067;BME280;37112;45.892;-123.962;2023-02-22T06:27:43;99986.08;;;3.42;84.63
51067;BME280;37112;45.892;-123.962;2023-02-22T06:29:57;99979.73;;;3.42;84.92
51067;BME280;37112;45.892;-123.962;2023-02-22T06:32:11;99975.80;;;3.40;85.50
51067;BME280;37112;45.892;-123.962;2023-02-22T06:34:24;99973.45;;;3.42;86.47
51067;BME280;37112;45.892;-123.962;2023-02-22T06:36:37;99967.46;;;3.42;87.02
51067;BME280;37112;45.892;-123.962;2023-02-22T06:38:51;99956.80;;;3.38;86.70
51067;BME280;37112;45.892;-123.962;2023-02-22T06:41:04;99945.30;;;3.36;86.86
51067;BME280;37112;45.892;-123.962;2023-02-22T06:43:18;99945.92;;;3.38;87.22
51067;BME280;37112;45.892;-123.962;2023-02-22T06:45:31;99951.95;;;3.40;86.85
51067;BME280;37112;45.892;-123.962;2023-02-22T06:47:45;99945.79;;;3.40;86.65
51067;BME280;37112;45.892;-123.962;2023-02-22T06:49:59;99941.20;;;3.41;86.56
51067;BME280;37112;45.892;-123.962;2023-02-22T06:52:13;99942.63;;;3.41;86.43
51067;BME280;37112;45.892;-123.962;2023-02-22T06:54:26;99944.60;;;3.40;86.61
51067;BME280;37112;45.892;-123.962;2023-02-22T06:56:39;99946.38;;;3.39;87.11
51067;BME280;37112;45.892;-123.962;2023-02-22T06:58:53;99939.58;;;3.38;86.90
51067;BME280;37112;45.892;-123.962;2023-02-22T07:01:06;99938.72;;;3.38;86.78
51067;BME280;37112;45.892;-123.962;2023-02-22T07:03:19;99943.32;;;3.37;86.73
51067;BME280;37112;45.892;-123.962;2023-02-22T07:05:32;99940.10;;;3.38;86.95
51067;BME280;37112;45.892;-123.962;2023-02-22T07:07:47;99937.56;;;3.40;86.81
51067;BME280;37112;45.892;-123.962;2023-02-22T07:10:02;99938.48;;;3.42;87.41
51067;BME280;37112;45.892;-123.962;2023-02-22T07:12:15;99932.81;;;3.47;88.27
51067;BME280;37112;45.892;-123.962;2023-02-22T07:14:28;99938.67;;;3.53;88.11
51067;BME280;37112;45.892;-123.962;2023-02-22T07:16:41;99939.84;;;3.57;87.93
51067;BME280;37112;45.892;-123.962;2023-02-22T07:18:54;99930.33;;;3.61;88.15
51067;BME280;37112;45.892;-123.962;2023-02-22T07:21:11;99929.56;;;3.66;89.64
51067;BME280;37112;45.892;-123.962;2023-02-22T07:23:25;99925.50;;;3.77;91.04
51067;BME280;37112;45.892;-123.962;2023-02-22T07:25:39;99924.55;;;3.98;92.37
51067;BME280;37112;45.892;-123.962;2023-02-22T07:27:52;99923.20;;;4.13;91.82
51067;BME280;37112;45.892;-123.962;2023-02-22T07:30:09;99925.15;;;4.23;91.43
51067;BME280;37112;45.892;-123.962;2023-02-22T07:32:27;99926.45;;;4.35;91.81
51067;BME280;37112;45.892;-123.962;2023-02-22T07:34:42;99926.34;;;4.43;89.96
51067;BME280;37112;45.892;-123.962;2023-02-22T07:36:55;99924.62;;;4.49;89.43
51067;BME280;37112;45.892;-123.962;2023-02-22T07:39:09;99930.29;;;4.57;89.24
51067;BME280;37112;45.892;-123.962;2023-02-22T07:41:22;99921.70;;;4.63;89.23
51067;BME280;37112;45.892;-123.962;2023-02-22T07:43:35;99925.71;;;4.70;88.75
51067;BME280;37112;45.892;-123.962;2023-02-22T07:45:53;99920.92;;;4.74;87.83
51067;BME280;37112;45.892;-123.962;2023-02-22T07:48:07;99912.30;;;4.81;88.48
51067;BME280;37112;45.892;-123.962;2023-02-22T07:50:26;99917.45;;;4.83;87.54
51067;BME280;37112;45.892;-123.962;2023-02-22T07:52:40;99922.43;;;4.78;86.43
51067;BME280;37112;45.892;-123.962;2023-02-22T07:54:56;99923.55;;;4.74;86.86
51067;BME280;37112;45.892;-123.962;2023-02-22T07:57:10;99924.29;;;4.77;88.25
51067;BME280;37112;45.892;-123.962;2023-02-22T07:59:23;99928.35;;;4.73;86.71
51067;BME280;37112;45.892;-123.962;2023-02-22T08:01:37;99929.85;;;4.68;87.24
51067;BME280;37112;45.892;-123.962;2023-02-22T08:03:53;99929.64;;;4.69;88.27
51067;BME280;37112;45.892;-123.962;2023-02-22T08:06:08;99927.77;;;4.64;87.49
51067;BME280;37112;45.892;-123.962;2023-02-22T08:08:22;99922.42;;;4.63;88.23
51067;BME280;37112;45.892;-123.962;2023-02-22T08:10:36;99917.58;;;4.62;87.84
51067;BME280;37112;45.892;-123.962;2023-02-22T08:12:50;99915.97;;;4.59;87.98
51067;BME280;37112;45.892;-123.962;2023-02-22T08:15:06;99913.51;;;4.59;88.51
51067;BME280;37112;45.892;-123.962;2023-02-22T08:17:19;99913.96;;;4.63;89.54
51067;BME280;37112;45.892;-123.962;2023-02-22T08:19:32;99899.29;;;4.64;89.81
51067;BME280;37112;45.892;-123.962;2023-02-22T08:21:45;99914.36;;;4.65;90.15
51067;BME280;37112;45.892;-123.962;2023-02-22T08:23:58;99898.73;;;4.56;88.69
51067;BME280;37112;45.892;-123.962;2023-02-22T08:26:14;99899.04;;;4.47;89.21
51067;BME280;37112;45.892;-123.962;2023-02-22T08:28:28;99896.79;;;4.50;90.49
51067;BME280;37112;45.892;-123.962;2023-02-22T08:30:42;99899.86;;;4.51;90.42
51067;BME280;37112;45.892;-123.962;2023-02-22T08:32:56;99899.73;;;4.50;90.52
51067;BME280;37112;45.892;-123.962;2023-02-22T08:35:11;99895.84;;;4.51;91.20
51067;BME280;37112;45.892;-123.962;2023-02-22T08:37:25;99884.05;;;4.48;90.64
51067;BME280;37112;45.892;-123.962;2023-02-22T08:39:38;99888.30;;;4.44;90.43
51067;BME280;37112;45.892;-123.962;2023-02-22T08:41:51;99881.02;;;4.46;91.63
51067;BME280;37112;45.892;-123.962;2023-02-22T08:44:06;99881.38;;;4.52;92.50
51067;BME280;37112;45.892;-123.962;2023-02-22T08:46:20;99888.84;;;4.47;91.18
51067;BME280;37112;45.892;-123.962;2023-02-22T08:48:34;99878.39;;;4.42;91.76
51067;BME280;37112;45.892;-123.962;2023-02-22T08:50:48;99877.52;;;4.45;92.57
51067;BME280;37112;45.892;-123.962;2023-02-22T08:53:03;99872.91;;;4.43;91.92
51067;BME280;37112;45.892;-123.962;2023-02-22T08:55:17;99865.86;;;4.37;91.34
51067;BME280;37112;45.892;-123.962;2023-02-22T08:57:30;99856.49;;;4.32;91.45
51067;BME280;37112;45.892;-123.962;2023-02-22T08:59:43;99859.33;;;4.31;91.77
51067;BME280;37112;45.892;-123.962;2023-02-22T09:01:57;99857.38;;;4.34;91.90
51067;BME280;37112;45.892;-123.962;2023-02-22T09:04:12;99845.88;;;4.35;91.40
51067;BME280;37112;45.892;-123.962;2023-02-22T09:06:25;99849.52;;;4.40;91.83
51067;BME280;37112;45.892;-123.962;2023-02-22T09:08:38;99847.67;;;4.48;92.16
51067;BME280;37112;45.892;-123.962;2023-02-22T09:10:52;99849.77;;;4.54;91.77
51067;BME280;37112;45.892;-123.962;2023-02-22T09:13:07;99848.80;;;4.56;91.61
51067;BME280;37112;45.892;-123.962;2023-02-22T09:15:21;99838.46;;;4.58;91.46
51067;BME280;37112;45.892;-123.962;2023-02-22T09:17:34;99846.20;;;4.61;92.11
51067;BME280;37112;45.892;-123.962;2023-02-22T09:19:49;99844.80;;;4.64;90.73
51067;BME280;37112;45.892;-123.962;2023-02-22T09:22:03;99845.04;;;4.66;90.37
51067;BME280;37112;45.892;-123.962;2023-02-22T09:24:16;99848.40;;;4.69;90.27
51067;BME280;37112;45.892;-123.962;2023-02-22T09:26:29;99835.08;;;4.71;90.95
51067;BME280;37112;45.892;-123.962;2023-02-22T09:28:43;99848.02;;;4.70;90.15
51067;BME280;37112;45.892;-123.962;2023-02-22T09:30:57;99851.30;;;4.64;89.78
51067;BME280;37112;45.892;-123.962;2023-02-22T09:33:13;99852.73;;;4.58;89.66
51067;BME280;37112;45.892;-123.962;2023-02-22T09:35:28;99852.17;;;4.52;90.51
51067;BME280;37112;45.892;-123.962;2023-02-22T09:37:46;99847.83;;;4.51;90.29
51067;BME280;37112;45.892;-123.962;2023-02-22T09:40:00;99841.55;;;4.47;90.10
51067;BME280;37112;45.892;-123.962;2023-02-22T09:42:20;99850.74;;;4.49;91.33
51067;BME280;37112;45.892;-123.962;2023-02-22T09:44:41;99848.16;;;4.55;92.50
51067;BME280;37112;45.892;-123.962;2023-02-22T09:46:58;99846.45;;;4.60;92.40
51067;BME280;37112;45.892;-123.962;2023-02-22T09:49:19;99849.95;;;4.57;91.02
51067;BME280;37112;45.892;-123.962;2023-02-22T09:51:38;99836.23;;;4.54;91.42
51067;BME280;37112;45.892;-123.962;2023-02-22T09:53:57;99840.11;;;4.57;92.06
51067;BME280;37112;45.892;-123.962;2023-02-22T09:56:15;99833.98;;;4.56;91.71
51067;BME280;37112;45.892;-123.962;2023-02-22T09:58:34;99842.52;;;4.55;91.09
51067;BME280;37112;45.892;-123.962;2023-02-22T10:00:51;99838.05;;;4.50;90.80
51067;BME280;37112;45.892;-123.962;2023-02-22T10:03:19;99833.94;;;4.45;90.50
51067;BME280;37112;45.892;-123.962;2023-02-22T10:05:38;99828.05;;;4.40;90.29
51067;BME280;37112;45.892;-123.962;2023-02-22T10:07:57;99820.48;;;4.41;90.86
51067;BME280;37112;45.892;-123.962;2023-02-22T10:10:19;99816.92;;;4.44;91.09
51067;BME280;37112;45.892;-123.962;2023-02-22T10:12:40;99816.16;;;4.52;91.19
51067;BME280;37112;45.892;-123.962;2023-02-22T10:15:24;99812.81;;;4.58;91.02
51067;BME280;37112;45.892;-123.962;2023-02-22T10:17:46;99806.92;;;4.62;90.47
51067;BME280;37112;45.892;-123.962;2023-02-22T10:20:24;99800.63;;;4.65;90.22
51067;BME280;37112;45.892;-123.962;2023-02-22T10:22:54;99806.31;;;4.67;89.47
51067;BME280;37112;45.892;-123.962;2023-02-22T10:25:13;99800.21;;;4.69;89.46
51067;BME280;37112;45.892;-123.962;2023-02-22T10:27:34;99805.05;;;4.70;89.57
51067;BME280;37112;45.892;-123.962;2023-02-22T10:29:51;99798.44;;;4.72;89.53
51067;BME280;37112;45.892;-123.962;2023-02-22T10:32:10;99800.17;;;4.76;90.10
51067;BME280;37112;45.892;-123.962;2023-02-22T10:34:27;99803.27;;;4.74;89.57
51067;BME280;37112;45.892;-123.962;2023-02-22T10:36:43;99801.41;;;4.69;89.34
51067;BME280;37112;45.892;-123.962;2023-02-22T10:39:01;99801.23;;;4.66;89.48
51067;BME280;37112;45.892;-123.962;2023-02-22T10:41:29;99799.83;;;4.66;90.28
51067;BME280;37112;45.892;-123.962;2023-02-22T10:43:43;99796.50;;;4.66;89.54
51067;BME280;37112;45.892;-123.962;2023-02-22T10:45:59;99789.42;;;4.64;89.68
51067;BME280;37112;45.892;-123.962;2023-02-22T10:48:15;99787.09;;;4.65;89.72
51067;BME280;37112;45.892;-123.962;2023-02-22T10:50:33;99784.90;;;4.69;90.75
51067;BME280;37112;45.892;-123.962;2023-02-22T10:52:47;99780.90;;;4.71;90.19
51067;BME280;37112;45.892;-123.962;2023-02-22T10:55:01;99780.03;;;4.74;90.76
51067;BME280;37112;45.892;-123.962;2023-02-22T10:57:26;99776.57;;;4.80;90.55
51067;BME280;37112;45.892;-123.962;2023-02-22T10:59:42;99777.97;;;4.80;90.17
51067;BME280;37112;45.892;-123.962;2023-02-22T11:01:55;99776.34;;;4.77;89.34
51067;BME280;37112;45.892;-123.962;2023-02-22T11:04:12;99770.29;;;4.79;89.41
51067;BME280;37112;45.892;-123.962;2023-02-22T11:06:27;99767.22;;;4.80;89.08
51067;BME280;37112;45.892;-123.962;2023-02-22T11:08:41;99765.97;;;4.84;89.09
51067;BME280;37112;45.892;-123.962;2023-02-22T11:10:56;99763.57;;;4.85;89.05
51067;BME280;37112;45.892;-123.962;2023-02-22T11:13:26;99758.46;;;4.88;88.92
51067;BME280;37112;45.892;-123.962;2023-02-22T11:15:40;99756.27;;;4.90;88.76
51067;BME280;37112;45.892;-123.962;2023-02-22T11:17:56;99750.95;;;4.91;88.53
51067;BME280;37112;45.892;-123.962;2023-02-22T11:20:20;99747.68;;;4.95;89.49
51067;BME280;37112;45.892;-123.962;2023-02-22T11:22:40;99756.35;;;4.97;89.66
51067;BME280;37112;45.892;-123.962;2023-02-22T11:24:55;99760.27;;;4.90;89.07
51067;BME280;37112;45.892;-123.962;2023-02-22T11:27:10;99762.44;;;4.84;89.75
51067;BME280;37112;45.892;-123.962;2023-02-22T11:29:35;99750.64;;;4.78;90.10
51067;BME280;37112;45.892;-123.962;2023-02-22T11:31:50;99750.13;;;4.71;89.50
51067;BME280;37112;45.892;-123.962;2023-02-22T11:34:05;99743.48;;;4.68;90.23
51067;BME280;37112;45.892;-123.962;2023-02-22T11:36:31;99734.36;;;4.70;91.65
51067;BME280;37112;45.892;-123.962;2023-02-22T11:38:56;99740.32;;;4.77;92.17
51067;BME280;37112;45.892;-123.962;2023-02-22T11:41:10;99738.91;;;4.77;91.85
51067;BME280;37112;45.892;-123.962;2023-02-22T11:43:26;99733.30;;;4.79;92.26